Langley Air Force Base
KLFI : now visible

Airfield :











YOU CAN JOIN US ON...

 
LOGIN :

Register | Disclaimer

   EN    FR    IT 

 









Legend :    VFR   Marginal VFR   IFR   Intensive IFR   Very Intensive IFR
Visi :
Ceiling :
>= 8 km
>= 3000ft
5 to 8 km
1000 to 3000 ft
1500m to 5 km
500 to 1000 ft
800 to 1500m
200 to 500 ft
< 800m
< 200 ft
Symbols :   Thunderstorms  Fog  Heavy snow  Heavy precipitations  Wind > 20 kt






- Airport Elevation : 11 ft


KLFI - Langley Air Force Base

CURRENT METAR :
  • 242356Z 06006KT 10SM BKN050 09/09 A3011 RMK AO2A SLPNO RVRNO ALTSTG ESTMD

EXPIRED METARs :
  • 242256Z 07004KT 10SM BKN060 10/10 A3012 RMK AO2A SLP206 T01040102 $
  • 242156Z 12007KT 10SM BKN050 11/10 A3011 RMK AO2A SLP203 T01130102 $
  • 242127Z 11006KT 10SM BKN040 12/10 A3012 RMK SLP206 $

TAF TAF KLFI
Valid from the 24 at 18:00 until the 26 at 00:00 UTC


241800Z 2418/2524 12009KT 9999 BKN040 QNH3020INS
BECMG 2509/2510 17015G20KT 8000 -SHRA OVC015 QNH2985INS
BECMG 2516/2517 26012G18KT 9999 NSW FEW020 QNH2983INS
BECMG 2522/2523 27012KT 9999 SCT020 BKN030 QNH2980INS TX14/2516Z TN09/2518Z



MET'MAP, your aeronautical weather chart ! - Copyright ORBIFLY December 2007 - Disclaimer

ORBIFLY MET'MAP TEAM :

Programming & Development : Alexandra Zaïnal
Concept & original design : Baudouin d'Aumeries
Assistance for programming : Marc-Olivier Méhu
Technical & hardware support : Manuel Goepfert

Contact : metmap@orbifly.com




SOURCES & CREDITS :

   NOAA       Earth
Advisory